sensor_id;sensor_type;location;lat;lon;timestamp;P1;durP1;ratioP1;P2;durP2;ratioP2
52508;SDS011;38420;53.150;6.370;2023-07-29T00:01:30;16.15;;;10.30;;
52508;SDS011;38420;53.150;6.370;2023-07-29T00:03:56;17.83;;;11.57;;
52508;SDS011;38420;53.150;6.370;2023-07-29T00:06:21;12.90;;;10.02;;
52508;SDS011;38420;53.150;6.370;2023-07-29T00:08:47;17.42;;;11.02;;
52508;SDS011;38420;53.150;6.370;2023-07-29T00:11:13;15.80;;;10.73;;
52508;SDS011;38420;53.150;6.370;2023-07-29T00:13:38;16.52;;;10.75;;
52508;SDS011;38420;53.150;6.370;2023-07-29T00:16:04;15.38;;;11.13;;
52508;SDS011;38420;53.150;6.370;2023-07-29T00:18:29;15.27;;;11.00;;
52508;SDS011;38420;53.150;6.370;2023-07-29T00:20:56;14.02;;;11.20;;
52508;SDS011;38420;53.150;6.370;2023-07-29T00:23:22;15.85;;;11.75;;
52508;SDS011;38420;53.150;6.370;2023-07-29T00:25:48;15.77;;;11.70;;
52508;SDS011;38420;53.150;6.370;2023-07-29T00:28:13;16.10;;;11.95;;
52508;SDS011;38420;53.150;6.370;2023-07-29T00:30:39;15.93;;;11.10;;
52508;SDS011;38420;53.150;6.370;2023-07-29T00:33:05;14.00;;;11.30;;
52508;SDS011;38420;53.150;6.370;2023-07-29T00:35:30;15.98;;;11.35;;
52508;SDS011;38420;53.150;6.370;2023-07-29T00:37:56;18.17;;;11.68;;
52508;SDS011;38420;53.150;6.370;2023-07-29T00:40:22;24.02;;;13.02;;
52508;SDS011;38420;53.150;6.370;2023-07-29T00:42:48;15.80;;;11.95;;
52508;SDS011;38420;53.150;6.370;2023-07-29T00:45:14;16.08;;;11.70;;
52508;SDS011;38420;53.150;6.370;2023-07-29T00:47:40;15.10;;;11.73;;
52508;SDS011;38420;53.150;6.370;2023-07-29T00:50:08;16.00;;;11.38;;
52508;SDS011;38420;53.150;6.370;2023-07-29T00:52:35;17.63;;;11.48;;
52508;SDS011;38420;53.150;6.370;2023-07-29T00:55:01;14.55;;;11.18;;
52508;SDS011;38420;53.150;6.370;2023-07-29T00:57:27;15.43;;;12.10;;
52508;SDS011;38420;53.150;6.370;2023-07-29T00:59:55;17.17;;;11.20;;
52508;SDS011;38420;53.150;6.370;2023-07-29T01:02:21;15.85;;;11.35;;
52508;SDS011;38420;53.150;6.370;2023-07-29T01:04:51;14.90;;;11.32;;
52508;SDS011;38420;53.150;6.370;2023-07-29T01:07:23;16.17;;;11.35;;
52508;SDS011;38420;53.150;6.370;2023-07-29T01:18:08;15.02;;;11.95;;
52508;SDS011;38420;53.150;6.370;2023-07-29T01:20:40;16.35;;;12.23;;
52508;SDS011;38420;53.150;6.370;2023-07-29T01:23:08;17.67;;;12.50;;
52508;SDS011;38420;53.150;6.370;2023-07-29T01:25:34;15.30;;;11.65;;
52508;SDS011;38420;53.150;6.370;2023-07-29T01:28:00;16.70;;;12.20;;
52508;SDS011;38420;53.150;6.370;2023-07-29T01:30:35;16.67;;;12.27;;
52508;SDS011;38420;53.150;6.370;2023-07-29T01:33:05;16.77;;;13.10;;
52508;SDS011;38420;53.150;6.370;2023-07-29T01:36:03;15.68;;;12.90;;
52508;SDS011;38420;53.150;6.370;2023-07-29T01:38:38;16.90;;;13.02;;
52508;SDS011;38420;53.150;6.370;2023-07-29T01:41:07;19.75;;;12.43;;
52508;SDS011;38420;53.150;6.370;2023-07-29T01:43:33;19.02;;;13.25;;
52508;SDS011;38420;53.150;6.370;2023-07-29T01:46:04;17.40;;;12.85;;
52508;SDS011;38420;53.150;6.370;2023-07-29T01:48:30;18.08;;;13.40;;
52508;SDS011;38420;53.150;6.370;2023-07-29T01:50:57;22.33;;;14.10;;
52508;SDS011;38420;53.150;6.370;2023-07-29T01:53:22;20.60;;;13.65;;
52508;SDS011;38420;53.150;6.370;2023-07-29T01:55:48;22.05;;;13.90;;
52508;SDS011;38420;53.150;6.370;2023-07-29T01:58:14;18.30;;;13.32;;
52508;SDS011;38420;53.150;6.370;2023-07-29T02:00:40;20.40;;;13.68;;
52508;SDS011;38420;53.150;6.370;2023-07-29T02:03:05;19.45;;;13.45;;
52508;SDS011;38420;53.150;6.370;2023-07-29T02:05:31;20.95;;;13.82;;
52508;SDS011;38420;53.150;6.370;2023-07-29T02:07:57;18.23;;;14.02;;
52508;SDS011;38420;53.150;6.370;2023-07-29T02:10:22;20.52;;;13.20;;
52508;SDS011;38420;53.150;6.370;2023-07-29T02:12:48;20.00;;;14.13;;
52508;SDS011;38420;53.150;6.370;2023-07-29T02:15:13;18.80;;;13.23;;
52508;SDS011;38420;53.150;6.370;2023-07-29T02:17:40;19.80;;;14.25;;
52508;SDS011;38420;53.150;6.370;2023-07-29T02:20:06;19.63;;;13.65;;
52508;SDS011;38420;53.150;6.370;2023-07-29T02:22:33;18.58;;;13.23;;
52508;SDS011;38420;53.150;6.370;2023-07-29T02:24:59;17.83;;;13.70;;
52508;SDS011;38420;53.150;6.370;2023-07-29T02:27:26;19.58;;;14.88;;
52508;SDS011;38420;53.150;6.370;2023-07-29T02:29:52;17.65;;;13.07;;
52508;SDS011;38420;53.150;6.370;2023-07-29T02:32:18;19.40;;;14.65;;
52508;SDS011;38420;53.150;6.370;2023-07-29T02:34:44;26.63;;;14.40;;
52508;SDS011;38420;53.150;6.370;2023-07-29T02:37:10;20.83;;;14.60;;
52508;SDS011;38420;53.150;6.370;2023-07-29T02:39:36;19.77;;;13.35;;
52508;SDS011;38420;53.150;6.370;2023-07-29T02:42:02;21.40;;;14.15;;
52508;SDS011;38420;53.150;6.370;2023-07-29T02:44:28;16.83;;;13.05;;
52508;SDS011;38420;53.150;6.370;2023-07-29T02:46:53;22.88;;;14.55;;
52508;SDS011;38420;53.150;6.370;2023-07-29T02:49:21;22.38;;;14.10;;
52508;SDS011;38420;53.150;6.370;2023-07-29T02:51:47;22.15;;;12.68;;
52508;SDS011;38420;53.150;6.370;2023-07-29T02:54:13;20.50;;;12.98;;
52508;SDS011;38420;53.150;6.370;2023-07-29T02:56:38;19.38;;;12.73;;
52508;SDS011;38420;53.150;6.370;2023-07-29T02:59:04;19.80;;;12.38;;
52508;SDS011;38420;53.150;6.370;2023-07-29T03:01:30;19.63;;;13.00;;
52508;SDS011;38420;53.150;6.370;2023-07-29T03:03:56;17.75;;;11.60;;
52508;SDS011;38420;53.150;6.370;2023-07-29T03:06:21;19.73;;;13.82;;
52508;SDS011;38420;53.150;6.370;2023-07-29T03:08:47;22.30;;;11.40;;
52508;SDS011;38420;53.150;6.370;2023-07-29T03:11:13;21.35;;;12.93;;
52508;SDS011;38420;53.150;6.370;2023-07-29T03:13:40;20.48;;;12.07;;
52508;SDS011;38420;53.150;6.370;2023-07-29T03:16:13;19.15;;;11.57;;
52508;SDS011;38420;53.150;6.370;2023-07-29T03:18:40;16.65;;;11.95;;
52508;SDS011;38420;53.150;6.370;2023-07-29T03:21:07;19.25;;;11.63;;
52508;SDS011;38420;53.150;6.370;2023-07-29T03:23:33;19.83;;;12.20;;
52508;SDS011;38420;53.150;6.370;2023-07-29T03:26:00;17.17;;;12.75;;
52508;SDS011;38420;53.150;6.370;2023-07-29T03:28:27;21.13;;;12.60;;
52508;SDS011;38420;53.150;6.370;2023-07-29T03:30:54;18.95;;;12.45;;
52508;SDS011;38420;53.150;6.370;2023-07-29T03:33:20;17.52;;;11.50;;
52508;SDS011;38420;53.150;6.370;2023-07-29T03:35:46;18.15;;;12.43;;
52508;SDS011;38420;53.150;6.370;2023-07-29T03:38:12;21.02;;;11.25;;
52508;SDS011;38420;53.150;6.370;2023-07-29T03:40:38;17.52;;;11.93;;
52508;SDS011;38420;53.150;6.370;2023-07-29T03:43:04;17.42;;;11.52;;
52508;SDS011;38420;53.150;6.370;2023-07-29T03:45:30;20.02;;;11.55;;
52508;SDS011;38420;53.150;6.370;2023-07-29T03:47:55;19.98;;;11.43;;
52508;SDS011;38420;53.150;6.370;2023-07-29T03:50:21;18.67;;;11.50;;
52508;SDS011;38420;53.150;6.370;2023-07-29T03:52:47;15.98;;;11.18;;
52508;SDS011;38420;53.150;6.370;2023-07-29T03:55:12;18.08;;;11.25;;
52508;SDS011;38420;53.150;6.370;2023-07-29T03:57:38;20.83;;;11.63;;
52508;SDS011;38420;53.150;6.370;2023-07-29T04:00:04;16.95;;;11.13;;
52508;SDS011;38420;53.150;6.370;2023-07-29T04:02:30;17.75;;;11.48;;
52508;SDS011;38420;53.150;6.370;2023-07-29T04:04:56;25.00;;;12.30;;
52508;SDS011;38420;53.150;6.370;2023-07-29T04:07:22;16.52;;;12.35;;
52508;SDS011;38420;53.150;6.370;2023-07-29T04:09:47;18.42;;;10.75;;
52508;SDS011;38420;53.150;6.370;2023-07-29T04:12:14;19.38;;;11.23;;
52508;SDS011;38420;53.150;6.370;2023-07-29T04:14:40;14.80;;;10.65;;
52508;SDS011;38420;53.150;6.370;2023-07-29T04:17:06;15.18;;;10.43;;
52508;SDS011;38420;53.150;6.370;2023-07-29T04:19:33;19.00;;;11.43;;
52508;SDS011;38420;53.150;6.370;2023-07-29T04:21:59;18.63;;;10.35;;
52508;SDS011;38420;53.150;6.370;2023-07-29T04:24:25;16.65;;;10.73;;
52508;SDS011;38420;53.150;6.370;2023-07-29T04:26:50;16.08;;;10.55;;
52508;SDS011;38420;53.150;6.370;2023-07-29T04:29:16;19.35;;;10.93;;
52508;SDS011;38420;53.150;6.370;2023-07-29T04:31:41;15.98;;;10.63;;
52508;SDS011;38420;53.150;6.370;2023-07-29T04:34:07;17.30;;;10.43;;
52508;SDS011;38420;53.150;6.370;2023-07-29T04:36:34;14.02;;;8.82;;
52508;SDS011;38420;53.150;6.370;2023-07-29T04:39:00;18.13;;;10.02;;
52508;SDS011;38420;53.150;6.370;2023-07-29T04:41:25;13.38;;;9.60;;
52508;SDS011;38420;53.150;6.370;2023-07-29T04:43:51;12.02;;;7.97;;
52508;SDS011;38420;53.150;6.370;2023-07-29T04:46:17;16.30;;;8.52;;
52508;SDS011;38420;53.150;6.370;2023-07-29T04:48:43;15.45;;;9.07;;
52508;SDS011;38420;53.150;6.370;2023-07-29T04:51:08;13.45;;;8.80;;
52508;SDS011;38420;53.150;6.370;2023-07-29T04:53:34;11.18;;;7.30;;
52508;SDS011;38420;53.150;6.370;2023-07-29T04:56:01;14.30;;;8.20;;
52508;SDS011;38420;53.150;6.370;2023-07-29T04:58:27;13.65;;;7.47;;
52508;SDS011;38420;53.150;6.370;2023-07-29T05:00:54;13.07;;;8.63;;
52508;SDS011;38420;53.150;6.370;2023-07-29T05:03:21;13.27;;;7.53;;
52508;SDS011;38420;53.150;6.370;2023-07-29T05:05:46;14.82;;;7.30;;
52508;SDS011;38420;53.150;6.370;2023-07-29T05:08:12;13.32;;;7.25;;
52508;SDS011;38420;53.150;6.370;2023-07-29T05:10:37;12.73;;;7.22;;
52508;SDS011;38420;53.150;6.370;2023-07-29T05:13:03;14.00;;;7.20;;
52508;SDS011;38420;53.150;6.370;2023-07-29T05:15:29;14.07;;;7.00;;
52508;SDS011;38420;53.150;6.370;2023-07-29T05:17:55;11.85;;;6.82;;
52508;SDS011;38420;53.150;6.370;2023-07-29T05:20:21;10.30;;;6.07;;
52508;SDS011;38420;53.150;6.370;2023-07-29T05:22:46;13.73;;;7.18;;
52508;SDS011;38420;53.150;6.370;2023-07-29T05:25:12;11.20;;;6.65;;
52508;SDS011;38420;53.150;6.370;2023-07-29T05:27:37;9.30;;;6.35;;
52508;SDS011;38420;53.150;6.370;2023-07-29T05:30:03;10.35;;;6.97;;
52508;SDS011;38420;53.150;6.370;2023-07-29T05:32:29;9.77;;;6.00;;
52508;SDS011;38420;53.150;6.370;2023-07-29T05:34:55;12.07;;;6.28;;
52508;SDS011;38420;53.150;6.370;2023-07-29T05:37:20;12.73;;;6.88;;
52508;SDS011;38420;53.150;6.370;2023-07-29T05:39:46;10.85;;;6.28;;
52508;SDS011;38420;53.150;6.370;2023-07-29T05:42:11;9.27;;;5.55;;
52508;SDS011;38420;53.150;6.370;2023-07-29T05:44:37;11.10;;;5.80;;
52508;SDS011;38420;53.150;6.370;2023-07-29T05:47:03;12.23;;;5.60;;
52508;SDS011;38420;53.150;6.370;2023-07-29T05:49:28;9.27;;;5.45;;
52508;SDS011;38420;53.150;6.370;2023-07-29T05:51:54;10.27;;;5.07;;
52508;SDS011;38420;53.150;6.370;2023-07-29T05:54:19;10.02;;;6.25;;
52508;SDS011;38420;53.150;6.370;2023-07-29T05:56:45;10.55;;;5.20;;
52508;SDS011;38420;53.150;6.370;2023-07-29T05:59:11;8.63;;;5.38;;
52508;SDS011;38420;53.150;6.370;2023-07-29T06:01:36;8.35;;;5.13;;
52508;SDS011;38420;53.150;6.370;2023-07-29T06:04:02;7.72;;;4.57;;
52508;SDS011;38420;53.150;6.370;2023-07-29T06:06:28;9.85;;;4.68;;
52508;SDS011;38420;53.150;6.370;2023-07-29T06:08:53;10.05;;;4.90;;
52508;SDS011;38420;53.150;6.370;2023-07-29T06:11:19;10.07;;;4.78;;
52508;SDS011;38420;53.150;6.370;2023-07-29T06:13:45;8.20;;;4.60;;
52508;SDS011;38420;53.150;6.370;2023-07-29T06:16:12;9.82;;;4.68;;
52508;SDS011;38420;53.150;6.370;2023-07-29T06:18:37;10.45;;;5.15;;
52508;SDS011;38420;53.150;6.370;2023-07-29T06:21:03;10.30;;;4.60;;
52508;SDS011;38420;53.150;6.370;2023-07-29T06:23:32;10.10;;;4.53;;
52508;SDS011;38420;53.150;6.370;2023-07-29T06:26:01;8.32;;;4.57;;
52508;SDS011;38420;53.150;6.370;2023-07-29T06:28:26;7.65;;;4.68;;
52508;SDS011;38420;53.150;6.370;2023-07-29T06:30:52;10.88;;;5.25;;
52508;SDS011;38420;53.150;6.370;2023-07-29T06:33:18;7.13;;;4.40;;
52508;SDS011;38420;53.150;6.370;2023-07-29T06:35:43;8.18;;;3.90;;
52508;SDS011;38420;53.150;6.370;2023-07-29T06:38:09;8.52;;;4.47;;
52508;SDS011;38420;53.150;6.370;2023-07-29T06:40:35;7.70;;;4.78;;
52508;SDS011;38420;53.150;6.370;2023-07-29T06:43:00;9.25;;;3.92;;
52508;SDS011;38420;53.150;6.370;2023-07-29T06:45:26;11.40;;;4.90;;
52508;SDS011;38420;53.150;6.370;2023-07-29T06:47:52;8.05;;;4.50;;
52508;SDS011;38420;53.150;6.370;2023-07-29T06:50:17;9.80;;;4.35;;
52508;SDS011;38420;53.150;6.370;2023-07-29T06:52:43;12.13;;;5.68;;
52508;SDS011;38420;53.150;6.370;2023-07-29T06:55:08;9.20;;;4.32;;
52508;SDS011;38420;53.150;6.370;2023-07-29T06:57:34;8.50;;;4.82;;
52508;SDS011;38420;53.150;6.370;2023-07-29T07:00:00;10.40;;;4.72;;
52508;SDS011;38420;53.150;6.370;2023-07-29T07:02:26;11.50;;;4.80;;
52508;SDS011;38420;53.150;6.370;2023-07-29T07:04:51;10.70;;;5.07;;
52508;SDS011;38420;53.150;6.370;2023-07-29T07:07:17;8.88;;;4.60;;
52508;SDS011;38420;53.150;6.370;2023-07-29T07:09:42;13.43;;;4.95;;
52508;SDS011;38420;53.150;6.370;2023-07-29T07:12:08;7.60;;;4.25;;
52508;SDS011;38420;53.150;6.370;2023-07-29T07:14:34;11.10;;;5.97;;
52508;SDS011;38420;53.150;6.370;2023-07-29T07:16:59;10.15;;;4.68;;
52508;SDS011;38420;53.150;6.370;2023-07-29T07:19:25;9.90;;;5.38;;
52508;SDS011;38420;53.150;6.370;2023-07-29T07:21:51;12.85;;;4.65;;
52508;SDS011;38420;53.150;6.370;2023-07-29T07:24:16;9.15;;;4.40;;
52508;SDS011;38420;53.150;6.370;2023-07-29T07:26:42;11.05;;;5.25;;
52508;SDS011;38420;53.150;6.370;2023-07-29T07:29:07;9.40;;;5.32;;
52508;SDS011;38420;53.150;6.370;2023-07-29T07:31:33;7.57;;;4.85;;
52508;SDS011;38420;53.150;6.370;2023-07-29T07:33:59;9.05;;;5.18;;
52508;SDS011;38420;53.150;6.370;2023-07-29T07:36:27;7.47;;;4.38;;
52508;SDS011;38420;53.150;6.370;2023-07-29T07:38:52;9.88;;;4.90;;
52508;SDS011;38420;53.150;6.370;2023-07-29T07:41:18;10.68;;;5.10;;
52508;SDS011;38420;53.150;6.370;2023-07-29T07:43:44;9.68;;;5.13;;
52508;SDS011;38420;53.150;6.370;2023-07-29T07:46:09;10.73;;;4.75;;
52508;SDS011;38420;53.150;6.370;2023-07-29T07:48:35;11.90;;;5.55;;
52508;SDS011;38420;53.150;6.370;2023-07-29T07:51:09;9.52;;;4.25;;
52508;SDS011;38420;53.150;6.370;2023-07-29T07:53:36;9.23;;;4.97;;
52508;SDS011;38420;53.150;6.370;2023-07-29T07:56:01;10.52;;;4.57;;
52508;SDS011;38420;53.150;6.370;2023-07-29T07:58:27;9.30;;;4.50;;
52508;SDS011;38420;53.150;6.370;2023-07-29T08:01:00;8.25;;;4.22;;
52508;SDS011;38420;53.150;6.370;2023-07-29T08:03:29;11.23;;;5.03;;
52508;SDS011;38420;53.150;6.370;2023-07-29T08:05:55;10.45;;;4.88;;
52508;SDS011;38420;53.150;6.370;2023-07-29T08:08:20;7.68;;;3.17;;
52508;SDS011;38420;53.150;6.370;2023-07-29T08:10:46;8.35;;;3.25;;
52508;SDS011;38420;53.150;6.370;2023-07-29T08:13:11;14.13;;;4.10;;
52508;SDS011;38420;53.150;6.370;2023-07-29T08:15:37;7.50;;;3.70;;
52508;SDS011;38420;53.150;6.370;2023-07-29T08:18:03;7.10;;;3.38;;
52508;SDS011;38420;53.150;6.370;2023-07-29T08:20:28;9.52;;;3.78;;
52508;SDS011;38420;53.150;6.370;2023-07-29T08:22:54;10.73;;;3.33;;
52508;SDS011;38420;53.150;6.370;2023-07-29T08:25:19;6.15;;;2.63;;
52508;SDS011;38420;53.150;6.370;2023-07-29T08:27:45;10.60;;;2.88;;
52508;SDS011;38420;53.150;6.370;2023-07-29T08:30:11;8.82;;;2.85;;
52508;SDS011;38420;53.150;6.370;2023-07-29T08:32:37;8.82;;;2.95;;
52508;SDS011;38420;53.150;6.370;2023-07-29T08:35:02;4.75;;;2.90;;
52508;SDS011;38420;53.150;6.370;2023-07-29T08:37:28;8.77;;;3.78;;
52508;SDS011;38420;53.150;6.370;2023-07-29T08:39:54;5.05;;;2.60;;
52508;SDS011;38420;53.150;6.370;2023-07-29T08:42:20;7.40;;;2.70;;
52508;SDS011;38420;53.150;6.370;2023-07-29T08:44:48;9.18;;;2.92;;
52508;SDS011;38420;53.150;6.370;2023-07-29T08:47:14;5.95;;;2.80;;
52508;SDS011;38420;53.150;6.370;2023-07-29T08:49:41;5.97;;;2.58;;
52508;SDS011;38420;53.150;6.370;2023-07-29T08:52:08;7.38;;;3.00;;
52508;SDS011;38420;53.150;6.370;2023-07-29T08:54:34;7.53;;;2.65;;
52508;SDS011;38420;53.150;6.370;2023-07-29T08:57:00;9.10;;;2.60;;
52508;SDS011;38420;53.150;6.370;2023-07-29T08:59:27;6.63;;;3.22;;
52508;SDS011;38420;53.150;6.370;2023-07-29T09:01:54;7.90;;;3.38;;
52508;SDS011;38420;53.150;6.370;2023-07-29T09:04:21;6.82;;;2.45;;
52508;SDS011;38420;53.150;6.370;2023-07-29T09:06:48;6.28;;;2.50;;
52508;SDS011;38420;53.150;6.370;2023-07-29T09:09:16;4.70;;;2.10;;
52508;SDS011;38420;53.150;6.370;2023-07-29T09:11:41;3.72;;;2.15;;
52508;SDS011;38420;53.150;6.370;2023-07-29T09:14:08;4.68;;;2.25;;
52508;SDS011;38420;53.150;6.370;2023-07-29T09:16:34;7.47;;;2.17;;
52508;SDS011;38420;53.150;6.370;2023-07-29T09:19:01;5.13;;;2.08;;
52508;SDS011;38420;53.150;6.370;2023-07-29T09:21:28;4.97;;;2.40;;
52508;SDS011;38420;53.150;6.370;2023-07-29T09:23:55;3.83;;;1.75;;
52508;SDS011;38420;53.150;6.370;2023-07-29T09:26:24;4.57;;;2.10;;
52508;SDS011;38420;53.150;6.370;2023-07-29T09:28:55;3.72;;;1.88;;
52508;SDS011;38420;53.150;6.370;2023-07-29T09:31:22;4.13;;;1.33;;
52508;SDS011;38420;53.150;6.370;2023-07-29T09:33:49;4.20;;;1.63;;
52508;SDS011;38420;53.150;6.370;2023-07-29T09:38:46;5.53;;;1.80;;
52508;SDS011;38420;53.150;6.370;2023-07-29T09:41:12;4.05;;;1.88;;
52508;SDS011;38420;53.150;6.370;2023-07-29T09:43:40;4.70;;;2.03;;
52508;SDS011;38420;53.150;6.370;2023-07-29T09:46:06;6.72;;;2.22;;
52508;SDS011;38420;53.150;6.370;2023-07-29T09:48:35;4.90;;;2.30;;
52508;SDS011;38420;53.150;6.370;2023-07-29T09:51:11;5.40;;;1.70;;
52508;SDS011;38420;53.150;6.370;2023-07-29T09:53:45;4.65;;;2.10;;
52508;SDS011;38420;53.150;6.370;2023-07-29T09:56:11;5.75;;;2.42;;
52508;SDS011;38420;53.150;6.370;2023-07-29T09:58:37;5.10;;;2.03;;
52508;SDS011;38420;53.150;6.370;2023-07-29T10:01:04;4.53;;;2.08;;
52508;SDS011;38420;53.150;6.370;2023-07-29T10:03:33;6.57;;;1.92;;
52508;SDS011;38420;53.150;6.370;2023-07-29T10:06:04;5.65;;;2.08;;
52508;SDS011;38420;53.150;6.370;2023-07-29T10:08:30;5.30;;;1.90;;
52508;SDS011;38420;53.150;6.370;2023-07-29T10:11:00;5.18;;;1.95;;
52508;SDS011;38420;53.150;6.370;2023-07-29T10:13:26;5.88;;;2.90;;
52508;SDS011;38420;53.150;6.370;2023-07-29T10:15:55;3.97;;;1.88;;
52508;SDS011;38420;53.150;6.370;2023-07-29T10:18:21;5.00;;;1.90;;
52508;SDS011;38420;53.150;6.370;2023-07-29T10:20:48;8.32;;;2.10;;
52508;SDS011;38420;53.150;6.370;2023-07-29T10:23:17;6.22;;;1.45;;
52508;SDS011;38420;53.150;6.370;2023-07-29T10:25:47;5.72;;;2.10;;
52508;SDS011;38420;53.150;6.370;2023-07-29T10:28:20;4.97;;;1.50;;
52508;SDS011;38420;53.150;6.370;2023-07-29T10:30:48;4.18;;;1.70;;
52508;SDS011;38420;53.150;6.370;2023-07-29T10:33:16;6.78;;;1.80;;
52508;SDS011;38420;53.150;6.370;2023-07-29T10:35:41;3.35;;;1.92;;
52508;SDS011;38420;53.150;6.370;2023-07-29T10:38:07;4.90;;;1.52;;
52508;SDS011;38420;53.150;6.370;2023-07-29T10:40:43;4.28;;;1.85;;
52508;SDS011;38420;53.150;6.370;2023-07-29T10:43:11;4.32;;;1.73;;
52508;SDS011;38420;53.150;6.370;2023-07-29T10:45:40;4.28;;;1.40;;
52508;SDS011;38420;53.150;6.370;2023-07-29T10:50:33;5.65;;;2.00;;
52508;SDS011;38420;53.150;6.370;2023-07-29T10:53:00;5.50;;;1.83;;
52508;SDS011;38420;53.150;6.370;2023-07-29T10:55:29;6.35;;;2.40;;
52508;SDS011;38420;53.150;6.370;2023-07-29T11:00:33;3.80;;;1.80;;
52508;SDS011;38420;53.150;6.370;2023-07-29T11:02:59;3.90;;;1.30;;
52508;SDS011;38420;53.150;6.370;2023-07-29T11:05:27;3.35;;;1.42;;
52508;SDS011;38420;53.150;6.370;2023-07-29T11:08:29;4.43;;;1.55;;
52508;SDS011;38420;53.150;6.370;2023-07-29T11:11:02;5.72;;;1.60;;
52508;SDS011;38420;53.150;6.370;2023-07-29T11:13:30;5.00;;;2.00;;
52508;SDS011;38420;53.150;6.370;2023-07-29T11:15:57;3.90;;;2.05;;
52508;SDS011;38420;53.150;6.370;2023-07-29T11:18:27;4.93;;;1.80;;
52508;SDS011;38420;53.150;6.370;2023-07-29T11:20:55;3.40;;;1.88;;
52508;SDS011;38420;53.150;6.370;2023-07-29T11:23:26;6.47;;;2.08;;
52508;SDS011;38420;53.150;6.370;2023-07-29T11:25:56;4.45;;;1.92;;
52508;SDS011;38420;53.150;6.370;2023-07-29T11:28:23;6.00;;;1.92;;
52508;SDS011;38420;53.150;6.370;2023-07-29T11:30:50;4.28;;;1.85;;
52508;SDS011;38420;53.150;6.370;2023-07-29T11:33:20;5.13;;;1.70;;
52508;SDS011;38420;53.150;6.370;2023-07-29T11:35:46;5.00;;;2.50;;
52508;SDS011;38420;53.150;6.370;2023-07-29T11:38:15;6.28;;;2.25;;
52508;SDS011;38420;53.150;6.370;2023-07-29T11:40:42;5.10;;;2.15;;
52508;SDS011;38420;53.150;6.370;2023-07-29T11:43:08;5.32;;;1.95;;
52508;SDS011;38420;53.150;6.370;2023-07-29T11:45:33;4.28;;;1.92;;
52508;SDS011;38420;53.150;6.370;2023-07-29T11:48:00;5.68;;;1.95;;
52508;SDS011;38420;53.150;6.370;2023-07-29T11:50:26;5.47;;;1.77;;
52508;SDS011;38420;53.150;6.370;2023-07-29T11:52:52;4.57;;;1.90;;
52508;SDS011;38420;53.150;6.370;2023-07-29T11:55:18;3.92;;;2.05;;
52508;SDS011;38420;53.150;6.370;2023-07-29T11:57:44;5.22;;;2.38;;
52508;SDS011;38420;53.150;6.370;2023-07-29T12:00:16;8.30;;;2.45;;
52508;SDS011;38420;53.150;6.370;2023-07-29T12:02:43;5.80;;;2.35;;
52508;SDS011;38420;53.150;6.370;2023-07-29T12:05:10;5.85;;;2.55;;
52508;SDS011;38420;53.150;6.370;2023-07-29T12:07:41;7.00;;;2.90;;
52508;SDS011;38420;53.150;6.370;2023-07-29T12:10:08;4.72;;;2.85;;
52508;SDS011;38420;53.150;6.370;2023-07-29T12:12:47;6.88;;;2.70;;
52508;SDS011;38420;53.150;6.370;2023-07-29T12:15:22;4.95;;;2.50;;
52508;SDS011;38420;53.150;6.370;2023-07-29T12:17:58;6.28;;;2.72;;
52508;SDS011;38420;53.150;6.370;2023-07-29T12:20:25;6.70;;;2.45;;
52508;SDS011;38420;53.150;6.370;2023-07-29T12:22:52;4.22;;;2.22;;
52508;SDS011;38420;53.150;6.370;2023-07-29T12:25:21;5.28;;;2.42;;
52508;SDS011;38420;53.150;6.370;2023-07-29T12:27:48;7.35;;;2.92;;
52508;SDS011;38420;53.150;6.370;2023-07-29T12:30:13;8.32;;;2.75;;
52508;SDS011;38420;53.150;6.370;2023-07-29T12:32:45;5.78;;;2.63;;
52508;SDS011;38420;53.150;6.370;2023-07-29T12:35:12;8.70;;;2.92;;
52508;SDS011;38420;53.150;6.370;2023-07-29T12:37:38;5.65;;;3.00;;
52508;SDS011;38420;53.150;6.370;2023-07-29T12:40:07;4.72;;;2.65;;
52508;SDS011;38420;53.150;6.370;2023-07-29T12:42:34;6.95;;;3.28;;
52508;SDS011;38420;53.150;6.370;2023-07-29T12:44:59;5.13;;;2.80;;
52508;SDS011;38420;53.150;6.370;2023-07-29T12:47:25;5.60;;;2.92;;
52508;SDS011;38420;53.150;6.370;2023-07-29T12:49:50;6.20;;;2.05;;
52508;SDS011;38420;53.150;6.370;2023-07-29T12:52:16;4.55;;;2.42;;
52508;SDS011;38420;53.150;6.370;2023-07-29T12:54:41;4.55;;;1.95;;
52508;SDS011;38420;53.150;6.370;2023-07-29T12:57:09;4.53;;;1.70;;
52508;SDS011;38420;53.150;6.370;2023-07-29T12:59:34;5.60;;;2.03;;
52508;SDS011;38420;53.150;6.370;2023-07-29T13:02:00;7.35;;;2.38;;
52508;SDS011;38420;53.150;6.370;2023-07-29T13:04:26;5.70;;;2.17;;
52508;SDS011;38420;53.150;6.370;2023-07-29T13:06:51;8.73;;;2.10;;
52508;SDS011;38420;53.150;6.370;2023-07-29T13:09:17;5.50;;;2.05;;
52508;SDS011;38420;53.150;6.370;2023-07-29T13:11:42;3.63;;;1.98;;
52508;SDS011;38420;53.150;6.370;2023-07-29T13:14:08;4.35;;;2.05;;
52508;SDS011;38420;53.150;6.370;2023-07-29T13:16:34;5.78;;;1.88;;
52508;SDS011;38420;53.150;6.370;2023-07-29T13:18:59;5.95;;;2.22;;
52508;SDS011;38420;53.150;6.370;2023-07-29T13:21:25;5.53;;;1.90;;
52508;SDS011;38420;53.150;6.370;2023-07-29T13:23:51;6.15;;;2.42;;
52508;SDS011;38420;53.150;6.370;2023-07-29T13:26:17;5.85;;;2.08;;
52508;SDS011;38420;53.150;6.370;2023-07-29T13:28:42;5.53;;;2.42;;
52508;SDS011;38420;53.150;6.370;2023-07-29T13:31:08;5.10;;;2.05;;
52508;SDS011;38420;53.150;6.370;2023-07-29T13:33:34;5.82;;;2.35;;
52508;SDS011;38420;53.150;6.370;2023-07-29T13:36:00;6.45;;;3.40;;
52508;SDS011;38420;53.150;6.370;2023-07-29T13:38:28;6.45;;;2.80;;
52508;SDS011;38420;53.150;6.370;2023-07-29T13:40:54;7.68;;;2.65;;
52508;SDS011;38420;53.150;6.370;2023-07-29T13:43:19;5.57;;;2.50;;
52508;SDS011;38420;53.150;6.370;2023-07-29T13:45:45;4.65;;;2.35;;
52508;SDS011;38420;53.150;6.370;2023-07-29T13:48:13;6.57;;;2.40;;
52508;SDS011;38420;53.150;6.370;2023-07-29T13:50:39;5.15;;;2.47;;
52508;SDS011;38420;53.150;6.370;2023-07-29T13:53:06;3.88;;;2.42;;
52508;SDS011;38420;53.150;6.370;2023-07-29T13:55:31;7.03;;;2.65;;
52508;SDS011;38420;53.150;6.370;2023-07-29T13:57:57;6.47;;;2.65;;
52508;SDS011;38420;53.150;6.370;2023-07-29T14:00:23;4.85;;;2.53;;
52508;SDS011;38420;53.150;6.370;2023-07-29T14:02:48;3.88;;;2.10;;
52508;SDS011;38420;53.150;6.370;2023-07-29T14:05:14;6.68;;;2.58;;
52508;SDS011;38420;53.150;6.370;2023-07-29T14:07:40;4.97;;;1.83;;
52508;SDS011;38420;53.150;6.370;2023-07-29T14:10:05;5.93;;;2.53;;
52508;SDS011;38420;53.150;6.370;2023-07-29T14:12:31;9.13;;;2.67;;
52508;SDS011;38420;53.150;6.370;2023-07-29T14:14:57;4.53;;;2.08;;
52508;SDS011;38420;53.150;6.370;2023-07-29T14:17:23;5.28;;;2.00;;
52508;SDS011;38420;53.150;6.370;2023-07-29T14:19:48;5.35;;;2.30;;
52508;SDS011;38420;53.150;6.370;2023-07-29T14:22:14;5.60;;;2.05;;
52508;SDS011;38420;53.150;6.370;2023-07-29T14:24:39;5.15;;;2.72;;
52508;SDS011;38420;53.150;6.370;2023-07-29T14:27:05;5.38;;;2.40;;
52508;SDS011;38420;53.150;6.370;2023-07-29T14:29:31;3.97;;;2.20;;
52508;SDS011;38420;53.150;6.370;2023-07-29T14:31:56;3.90;;;1.80;;
52508;SDS011;38420;53.150;6.370;2023-07-29T14:34:22;6.03;;;2.20;;
52508;SDS011;38420;53.150;6.370;2023-07-29T14:36:48;8.25;;;2.50;;
52508;SDS011;38420;53.150;6.370;2023-07-29T14:39:14;6.20;;;3.03;;
52508;SDS011;38420;53.150;6.370;2023-07-29T14:41:39;6.53;;;2.03;;
52508;SDS011;38420;53.150;6.370;2023-07-29T14:44:05;3.97;;;2.00;;
52508;SDS011;38420;53.150;6.370;2023-07-29T14:46:31;6.40;;;2.15;;
52508;SDS011;38420;53.150;6.370;2023-07-29T14:48:56;3.97;;;1.80;;
52508;SDS011;38420;53.150;6.370;2023-07-29T14:51:22;5.05;;;1.80;;